sensor_id;sensor_type;location;lat;lon;timestamp;P1;durP1;ratioP1;P2;durP2;ratioP2
13085;SDS011;6609;49.882;8.664;2023-06-26T00:02:12;10.13;;;4.43;;
13085;SDS011;6609;49.882;8.664;2023-06-26T00:04:42;6.57;;;4.23;;
13085;SDS011;6609;49.882;8.664;2023-06-26T00:07:10;8.07;;;4.63;;
13085;SDS011;6609;49.882;8.664;2023-06-26T00:09:37;6.23;;;4.30;;
13085;SDS011;6609;49.882;8.664;2023-06-26T00:12:04;8.87;;;5.07;;
13085;SDS011;6609;49.882;8.664;2023-06-26T00:14:31;9.47;;;5.13;;
13085;SDS011;6609;49.882;8.664;2023-06-26T00:17:00;10.87;;;5.77;;
13085;SDS011;6609;49.882;8.664;2023-06-26T00:19:26;8.30;;;4.63;;
13085;SDS011;6609;49.882;8.664;2023-06-26T00:21:53;8.20;;;5.10;;
13085;SDS011;6609;49.882;8.664;2023-06-26T00:24:20;8.33;;;4.93;;
13085;SDS011;6609;49.882;8.664;2023-06-26T00:26:47;7.07;;;4.60;;
13085;SDS011;6609;49.882;8.664;2023-06-26T00:29:14;6.70;;;4.63;;
13085;SDS011;6609;49.882;8.664;2023-06-26T00:31:41;5.37;;;4.10;;
13085;SDS011;6609;49.882;8.664;2023-06-26T00:34:10;7.47;;;4.47;;
13085;SDS011;6609;49.882;8.664;2023-06-26T00:36:36;8.53;;;4.83;;
13085;SDS011;6609;49.882;8.664;2023-06-26T00:39:03;8.50;;;4.93;;
13085;SDS011;6609;49.882;8.664;2023-06-26T00:41:30;8.27;;;4.70;;
13085;SDS011;6609;49.882;8.664;2023-06-26T00:43:57;6.00;;;4.37;;
13085;SDS011;6609;49.882;8.664;2023-06-26T00:46:24;8.50;;;5.20;;
13085;SDS011;6609;49.882;8.664;2023-06-26T00:48:51;8.20;;;4.93;;
13085;SDS011;6609;49.882;8.664;2023-06-26T00:51:20;8.13;;;5.00;;
13085;SDS011;6609;49.882;8.664;2023-06-26T00:53:48;7.67;;;4.83;;
13085;SDS011;6609;49.882;8.664;2023-06-26T00:56:15;6.73;;;4.57;;
13085;SDS011;6609;49.882;8.664;2023-06-26T00:58:42;6.67;;;4.47;;
13085;SDS011;6609;49.882;8.664;2023-06-26T01:01:08;7.73;;;4.57;;
13085;SDS011;6609;49.882;8.664;2023-06-26T01:03:39;8.67;;;5.13;;
13085;SDS011;6609;49.882;8.664;2023-06-26T01:06:06;9.07;;;5.30;;
13085;SDS011;6609;49.882;8.664;2023-06-26T01:08:37;10.07;;;5.37;;
13085;SDS011;6609;49.882;8.664;2023-06-26T01:11:04;8.67;;;4.97;;
13085;SDS011;6609;49.882;8.664;2023-06-26T01:13:31;7.40;;;4.73;;
13085;SDS011;6609;49.882;8.664;2023-06-26T01:15:59;8.20;;;5.07;;
13085;SDS011;6609;49.882;8.664;2023-06-26T01:18:26;9.30;;;5.30;;
13085;SDS011;6609;49.882;8.664;2023-06-26T01:20:55;9.40;;;5.37;;
13085;SDS011;6609;49.882;8.664;2023-06-26T01:23:29;7.10;;;4.90;;
13085;SDS011;6609;49.882;8.664;2023-06-26T01:26:15;8.27;;;4.97;;
13085;SDS011;6609;49.882;8.664;2023-06-26T01:28:43;8.83;;;4.83;;
13085;SDS011;6609;49.882;8.664;2023-06-26T01:31:12;8.63;;;5.00;;
13085;SDS011;6609;49.882;8.664;2023-06-26T01:33:39;6.00;;;4.47;;
13085;SDS011;6609;49.882;8.664;2023-06-26T01:36:07;9.00;;;5.50;;
13085;SDS011;6609;49.882;8.664;2023-06-26T01:38:34;8.67;;;5.27;;
13085;SDS011;6609;49.882;8.664;2023-06-26T01:41:01;6.20;;;4.27;;
13085;SDS011;6609;49.882;8.664;2023-06-26T01:43:31;11.13;;;5.73;;
13085;SDS011;6609;49.882;8.664;2023-06-26T01:46:01;10.83;;;5.50;;
13085;SDS011;6609;49.882;8.664;2023-06-26T01:48:33;8.63;;;4.90;;
13085;SDS011;6609;49.882;8.664;2023-06-26T01:51:04;7.57;;;4.93;;
13085;SDS011;6609;49.882;8.664;2023-06-26T01:53:35;7.67;;;5.23;;
13085;SDS011;6609;49.882;8.664;2023-06-26T01:56:07;6.53;;;4.77;;
13085;SDS011;6609;49.882;8.664;2023-06-26T01:58:36;8.97;;;5.10;;
13085;SDS011;6609;49.882;8.664;2023-06-26T02:01:03;10.20;;;5.77;;
13085;SDS011;6609;49.882;8.664;2023-06-26T02:03:30;11.53;;;6.03;;
13085;SDS011;6609;49.882;8.664;2023-06-26T02:05:57;11.47;;;6.23;;
13085;SDS011;6609;49.882;8.664;2023-06-26T02:08:24;12.57;;;6.17;;
13085;SDS011;6609;49.882;8.664;2023-06-26T02:10:51;11.47;;;6.07;;
13085;SDS011;6609;49.882;8.664;2023-06-26T02:13:18;10.07;;;5.63;;
13085;SDS011;6609;49.882;8.664;2023-06-26T02:15:46;10.67;;;5.97;;
13085;SDS011;6609;49.882;8.664;2023-06-26T02:18:13;8.47;;;5.10;;
13085;SDS011;6609;49.882;8.664;2023-06-26T02:20:40;10.43;;;6.10;;
13085;SDS011;6609;49.882;8.664;2023-06-26T02:23:09;11.33;;;5.90;;
13085;SDS011;6609;49.882;8.664;2023-06-26T02:25:35;10.23;;;5.77;;
13085;SDS011;6609;49.882;8.664;2023-06-26T02:28:02;11.70;;;6.37;;
13085;SDS011;6609;49.882;8.664;2023-06-26T02:30:29;10.93;;;5.83;;
13085;SDS011;6609;49.882;8.664;2023-06-26T02:32:57;10.57;;;5.73;;
13085;SDS011;6609;49.882;8.664;2023-06-26T02:35:25;10.33;;;5.47;;
13085;SDS011;6609;49.882;8.664;2023-06-26T02:37:51;10.40;;;5.77;;
13085;SDS011;6609;49.882;8.664;2023-06-26T02:40:18;10.87;;;6.83;;
13085;SDS011;6609;49.882;8.664;2023-06-26T02:42:45;8.43;;;5.03;;
13085;SDS011;6609;49.882;8.664;2023-06-26T02:45:12;11.53;;;6.63;;
13085;SDS011;6609;49.882;8.664;2023-06-26T02:47:39;9.83;;;6.00;;
13085;SDS011;6609;49.882;8.664;2023-06-26T02:50:08;9.87;;;5.73;;
13085;SDS011;6609;49.882;8.664;2023-06-26T02:52:35;9.87;;;5.87;;
13085;SDS011;6609;49.882;8.664;2023-06-26T02:55:02;10.80;;;6.03;;
13085;SDS011;6609;49.882;8.664;2023-06-26T02:57:30;10.13;;;5.43;;
13085;SDS011;6609;49.882;8.664;2023-06-26T02:59:57;8.97;;;5.40;;
13085;SDS011;6609;49.882;8.664;2023-06-26T03:02:24;10.23;;;5.60;;
13085;SDS011;6609;49.882;8.664;2023-06-26T03:04:50;10.70;;;5.10;;
13085;SDS011;6609;49.882;8.664;2023-06-26T03:07:19;10.67;;;5.50;;
13085;SDS011;6609;49.882;8.664;2023-06-26T03:09:45;9.70;;;5.67;;
13085;SDS011;6609;49.882;8.664;2023-06-26T03:12:12;9.50;;;5.60;;
13085;SDS011;6609;49.882;8.664;2023-06-26T03:14:39;7.97;;;4.83;;
13085;SDS011;6609;49.882;8.664;2023-06-26T03:17:06;9.80;;;5.10;;
13085;SDS011;6609;49.882;8.664;2023-06-26T03:19:33;8.53;;;5.17;;
13085;SDS011;6609;49.882;8.664;2023-06-26T03:21:59;10.80;;;5.53;;
13085;SDS011;6609;49.882;8.664;2023-06-26T03:24:28;8.73;;;5.37;;
13085;SDS011;6609;49.882;8.664;2023-06-26T03:26:55;10.03;;;5.80;;
13085;SDS011;6609;49.882;8.664;2023-06-26T03:29:22;9.87;;;6.37;;
13085;SDS011;6609;49.882;8.664;2023-06-26T03:31:49;11.63;;;5.90;;
13085;SDS011;6609;49.882;8.664;2023-06-26T03:34:16;6.93;;;5.03;;
13085;SDS011;6609;49.882;8.664;2023-06-26T03:36:43;11.83;;;5.67;;
13085;SDS011;6609;49.882;8.664;2023-06-26T03:39:10;9.93;;;5.80;;
13085;SDS011;6609;49.882;8.664;2023-06-26T03:41:38;10.83;;;5.63;;
13085;SDS011;6609;49.882;8.664;2023-06-26T03:44:05;11.37;;;6.37;;
13085;SDS011;6609;49.882;8.664;2023-06-26T03:46:32;8.87;;;5.77;;
13085;SDS011;6609;49.882;8.664;2023-06-26T03:48:59;9.87;;;5.60;;
13085;SDS011;6609;49.882;8.664;2023-06-26T03:51:26;10.20;;;5.80;;
13085;SDS011;6609;49.882;8.664;2023-06-26T03:53:52;11.63;;;6.10;;
13085;SDS011;6609;49.882;8.664;2023-06-26T03:56:19;10.63;;;5.93;;
13085;SDS011;6609;49.882;8.664;2023-06-26T03:58:47;8.80;;;5.90;;
13085;SDS011;6609;49.882;8.664;2023-06-26T04:01:14;9.40;;;5.83;;
13085;SDS011;6609;49.882;8.664;2023-06-26T04:03:41;10.43;;;6.07;;
13085;SDS011;6609;49.882;8.664;2023-06-26T04:06:09;8.07;;;5.50;;
13085;SDS011;6609;49.882;8.664;2023-06-26T04:08:36;9.80;;;6.03;;
13085;SDS011;6609;49.882;8.664;2023-06-26T04:11:03;9.37;;;5.70;;
13085;SDS011;6609;49.882;8.664;2023-06-26T04:13:30;9.87;;;5.77;;
13085;SDS011;6609;49.882;8.664;2023-06-26T04:15:58;13.27;;;6.37;;
13085;SDS011;6609;49.882;8.664;2023-06-26T04:18:25;10.93;;;5.73;;
13085;SDS011;6609;49.882;8.664;2023-06-26T04:21:05;8.83;;;5.97;;
13085;SDS011;6609;49.882;8.664;2023-06-26T04:23:33;9.33;;;5.97;;
13085;SDS011;6609;49.882;8.664;2023-06-26T04:26:00;8.80;;;5.53;;
13085;SDS011;6609;49.882;8.664;2023-06-26T04:28:27;10.60;;;6.13;;
13085;SDS011;6609;49.882;8.664;2023-06-26T04:30:54;10.13;;;5.70;;
13085;SDS011;6609;49.882;8.664;2023-06-26T04:33:23;9.03;;;5.37;;
13085;SDS011;6609;49.882;8.664;2023-06-26T04:35:50;9.53;;;6.23;;
13085;SDS011;6609;49.882;8.664;2023-06-26T04:38:18;8.97;;;5.63;;
13085;SDS011;6609;49.882;8.664;2023-06-26T04:40:45;9.40;;;5.37;;
13085;SDS011;6609;49.882;8.664;2023-06-26T04:43:12;8.13;;;5.63;;
13085;SDS011;6609;49.882;8.664;2023-06-26T04:45:40;12.40;;;5.97;;
13085;SDS011;6609;49.882;8.664;2023-06-26T04:48:06;9.60;;;5.90;;
13085;SDS011;6609;49.882;8.664;2023-06-26T04:50:35;10.27;;;6.33;;
13085;SDS011;6609;49.882;8.664;2023-06-26T04:53:02;9.00;;;5.83;;
13085;SDS011;6609;49.882;8.664;2023-06-26T04:55:29;9.23;;;6.33;;
13085;SDS011;6609;49.882;8.664;2023-06-26T04:57:56;12.00;;;6.40;;
13085;SDS011;6609;49.882;8.664;2023-06-26T05:00:23;13.00;;;5.87;;
13085;SDS011;6609;49.882;8.664;2023-06-26T05:02:50;7.83;;;5.43;;
13085;SDS011;6609;49.882;8.664;2023-06-26T05:05:25;12.07;;;6.17;;
13085;SDS011;6609;49.882;8.664;2023-06-26T05:07:53;8.57;;;5.97;;
13085;SDS011;6609;49.882;8.664;2023-06-26T05:10:21;11.60;;;6.20;;
13085;SDS011;6609;49.882;8.664;2023-06-26T05:12:48;9.00;;;5.93;;
13085;SDS011;6609;49.882;8.664;2023-06-26T05:15:15;12.20;;;6.57;;
13085;SDS011;6609;49.882;8.664;2023-06-26T05:17:42;8.97;;;6.30;;
13085;SDS011;6609;49.882;8.664;2023-06-26T05:20:09;10.00;;;5.77;;
13085;SDS011;6609;49.882;8.664;2023-06-26T05:22:37;9.57;;;6.63;;
13085;SDS011;6609;49.882;8.664;2023-06-26T05:25:06;10.07;;;6.33;;
13085;SDS011;6609;49.882;8.664;2023-06-26T05:27:35;10.80;;;6.90;;
13085;SDS011;6609;49.882;8.664;2023-06-26T05:30:02;8.83;;;6.37;;
13085;SDS011;6609;49.882;8.664;2023-06-26T05:32:30;12.30;;;7.37;;
13085;SDS011;6609;49.882;8.664;2023-06-26T05:34:57;9.20;;;7.07;;
13085;SDS011;6609;49.882;8.664;2023-06-26T05:37:27;8.77;;;6.53;;
13085;SDS011;6609;49.882;8.664;2023-06-26T05:39:55;11.27;;;7.27;;
13085;SDS011;6609;49.882;8.664;2023-06-26T05:42:24;12.57;;;7.60;;
13085;SDS011;6609;49.882;8.664;2023-06-26T05:44:50;9.77;;;6.97;;
13085;SDS011;6609;49.882;8.664;2023-06-26T05:47:17;11.03;;;6.43;;
13085;SDS011;6609;49.882;8.664;2023-06-26T05:49:44;16.80;;;7.57;;
13085;SDS011;6609;49.882;8.664;2023-06-26T05:52:12;8.93;;;6.30;;
13085;SDS011;6609;49.882;8.664;2023-06-26T05:54:39;12.13;;;7.17;;
13085;SDS011;6609;49.882;8.664;2023-06-26T05:57:06;9.57;;;7.23;;
13085;SDS011;6609;49.882;8.664;2023-06-26T05:59:35;9.37;;;6.57;;
13085;SDS011;6609;49.882;8.664;2023-06-26T06:02:05;10.43;;;6.83;;
13085;SDS011;6609;49.882;8.664;2023-06-26T06:04:32;9.87;;;7.13;;
13085;SDS011;6609;49.882;8.664;2023-06-26T06:07:00;9.50;;;6.07;;
13085;SDS011;6609;49.882;8.664;2023-06-26T06:09:26;13.40;;;6.83;;
13085;SDS011;6609;49.882;8.664;2023-06-26T06:11:53;9.90;;;6.90;;
13085;SDS011;6609;49.882;8.664;2023-06-26T06:14:20;10.50;;;6.30;;
13085;SDS011;6609;49.882;8.664;2023-06-26T06:16:48;9.93;;;6.80;;
13085;SDS011;6609;49.882;8.664;2023-06-26T06:19:15;9.90;;;6.70;;
13085;SDS011;6609;49.882;8.664;2023-06-26T06:21:42;9.40;;;6.97;;
13085;SDS011;6609;49.882;8.664;2023-06-26T06:24:09;10.07;;;7.10;;
13085;SDS011;6609;49.882;8.664;2023-06-26T06:26:36;8.77;;;6.47;;
13085;SDS011;6609;49.882;8.664;2023-06-26T06:29:03;11.40;;;7.33;;
13085;SDS011;6609;49.882;8.664;2023-06-26T06:31:30;13.67;;;6.97;;
13085;SDS011;6609;49.882;8.664;2023-06-26T06:33:58;11.77;;;6.90;;
13085;SDS011;6609;49.882;8.664;2023-06-26T06:36:25;12.53;;;7.57;;
13085;SDS011;6609;49.882;8.664;2023-06-26T06:38:51;13.00;;;7.37;;
13085;SDS011;6609;49.882;8.664;2023-06-26T06:41:18;12.70;;;6.43;;
13085;SDS011;6609;49.882;8.664;2023-06-26T06:43:46;9.73;;;7.30;;
13085;SDS011;6609;49.882;8.664;2023-06-26T06:46:13;11.07;;;6.67;;
13085;SDS011;6609;49.882;8.664;2023-06-26T06:48:40;12.13;;;7.17;;
13085;SDS011;6609;49.882;8.664;2023-06-26T06:51:08;9.27;;;6.23;;
13085;SDS011;6609;49.882;8.664;2023-06-26T06:53:35;9.00;;;6.70;;
13085;SDS011;6609;49.882;8.664;2023-06-26T06:56:02;10.70;;;6.33;;
13085;SDS011;6609;49.882;8.664;2023-06-26T06:58:29;9.33;;;6.27;;
13085;SDS011;6609;49.882;8.664;2023-06-26T07:00:59;8.73;;;5.87;;
13085;SDS011;6609;49.882;8.664;2023-06-26T07:03:29;9.33;;;6.23;;
13085;SDS011;6609;49.882;8.664;2023-06-26T07:05:55;16.07;;;7.07;;
13085;SDS011;6609;49.882;8.664;2023-06-26T07:08:24;11.30;;;6.30;;
13085;SDS011;6609;49.882;8.664;2023-06-26T07:10:51;11.90;;;6.20;;
13085;SDS011;6609;49.882;8.664;2023-06-26T07:13:18;11.93;;;6.47;;
13085;SDS011;6609;49.882;8.664;2023-06-26T07:15:45;8.30;;;6.17;;
13085;SDS011;6609;49.882;8.664;2023-06-26T07:18:13;9.97;;;6.83;;
13085;SDS011;6609;49.882;8.664;2023-06-26T07:20:40;9.33;;;6.30;;
13085;SDS011;6609;49.882;8.664;2023-06-26T07:23:07;10.77;;;6.50;;
13085;SDS011;6609;49.882;8.664;2023-06-26T07:25:35;11.73;;;6.63;;
13085;SDS011;6609;49.882;8.664;2023-06-26T07:28:03;7.70;;;5.83;;
13085;SDS011;6609;49.882;8.664;2023-06-26T07:30:30;10.93;;;6.47;;
13085;SDS011;6609;49.882;8.664;2023-06-26T07:32:57;10.67;;;6.23;;
13085;SDS011;6609;49.882;8.664;2023-06-26T07:35:24;9.00;;;6.17;;
13085;SDS011;6609;49.882;8.664;2023-06-26T07:37:52;7.93;;;5.33;;
13085;SDS011;6609;49.882;8.664;2023-06-26T07:40:19;8.73;;;5.60;;
13085;SDS011;6609;49.882;8.664;2023-06-26T07:42:47;7.23;;;5.67;;
13085;SDS011;6609;49.882;8.664;2023-06-26T07:45:15;7.93;;;5.70;;
13085;SDS011;6609;49.882;8.664;2023-06-26T07:47:42;9.83;;;5.83;;
13085;SDS011;6609;49.882;8.664;2023-06-26T07:50:09;9.20;;;5.87;;
13085;SDS011;6609;49.882;8.664;2023-06-26T07:52:36;11.90;;;5.93;;
13085;SDS011;6609;49.882;8.664;2023-06-26T07:55:03;8.43;;;6.03;;
13085;SDS011;6609;49.882;8.664;2023-06-26T07:57:30;11.77;;;6.23;;
13085;SDS011;6609;49.882;8.664;2023-06-26T07:59:59;8.50;;;5.93;;
13085;SDS011;6609;49.882;8.664;2023-06-26T08:02:26;8.17;;;6.10;;
13085;SDS011;6609;49.882;8.664;2023-06-26T08:04:52;10.63;;;6.27;;
13085;SDS011;6609;49.882;8.664;2023-06-26T08:07:19;8.50;;;6.17;;
13085;SDS011;6609;49.882;8.664;2023-06-26T08:09:46;12.40;;;6.10;;
13085;SDS011;6609;49.882;8.664;2023-06-26T08:12:13;11.30;;;7.33;;
13085;SDS011;6609;49.882;8.664;2023-06-26T08:14:40;10.73;;;6.33;;
13085;SDS011;6609;49.882;8.664;2023-06-26T08:17:08;10.23;;;6.40;;
13085;SDS011;6609;49.882;8.664;2023-06-26T08:19:35;12.30;;;7.57;;
13085;SDS011;6609;49.882;8.664;2023-06-26T08:22:02;8.77;;;6.53;;
13085;SDS011;6609;49.882;8.664;2023-06-26T08:24:29;10.50;;;6.90;;
13085;SDS011;6609;49.882;8.664;2023-06-26T08:26:56;12.53;;;7.60;;
13085;SDS011;6609;49.882;8.664;2023-06-26T08:29:24;9.60;;;6.70;;
13085;SDS011;6609;49.882;8.664;2023-06-26T08:31:50;11.47;;;7.20;;
13085;SDS011;6609;49.882;8.664;2023-06-26T08:34:19;10.13;;;6.77;;
13085;SDS011;6609;49.882;8.664;2023-06-26T08:36:45;11.20;;;6.97;;
13085;SDS011;6609;49.882;8.664;2023-06-26T08:39:12;9.63;;;6.20;;
13085;SDS011;6609;49.882;8.664;2023-06-26T08:41:39;8.37;;;6.33;;
13085;SDS011;6609;49.882;8.664;2023-06-26T08:44:07;8.03;;;6.40;;
13085;SDS011;6609;49.882;8.664;2023-06-26T08:46:34;8.13;;;6.20;;
13085;SDS011;6609;49.882;8.664;2023-06-26T08:49:04;8.43;;;6.33;;
13085;SDS011;6609;49.882;8.664;2023-06-26T08:51:42;9.70;;;5.80;;
13085;SDS011;6609;49.882;8.664;2023-06-26T08:54:16;11.33;;;6.77;;
13085;SDS011;6609;49.882;8.664;2023-06-26T08:56:48;9.07;;;5.87;;
13085;SDS011;6609;49.882;8.664;2023-06-26T08:59:15;13.80;;;5.97;;
13085;SDS011;6609;49.882;8.664;2023-06-26T09:01:43;9.33;;;6.63;;
13085;SDS011;6609;49.882;8.664;2023-06-26T09:04:10;10.53;;;5.97;;
13085;SDS011;6609;49.882;8.664;2023-06-26T09:06:37;8.40;;;6.30;;
13085;SDS011;6609;49.882;8.664;2023-06-26T09:09:06;10.23;;;5.93;;
13085;SDS011;6609;49.882;8.664;2023-06-26T09:11:33;8.17;;;6.00;;
13085;SDS011;6609;49.882;8.664;2023-06-26T09:14:00;7.00;;;6.30;;
13085;SDS011;6609;49.882;8.664;2023-06-26T09:16:30;9.57;;;5.87;;
13085;SDS011;6609;49.882;8.664;2023-06-26T09:18:57;10.50;;;6.47;;
13085;SDS011;6609;49.882;8.664;2023-06-26T09:21:24;6.20;;;5.33;;
13085;SDS011;6609;49.882;8.664;2023-06-26T09:23:51;7.80;;;5.70;;
13085;SDS011;6609;49.882;8.664;2023-06-26T09:26:20;11.93;;;6.90;;
13085;SDS011;6609;49.882;8.664;2023-06-26T09:28:48;8.33;;;5.97;;
13085;SDS011;6609;49.882;8.664;2023-06-26T09:31:15;8.07;;;5.20;;
13085;SDS011;6609;49.882;8.664;2023-06-26T09:33:42;8.83;;;5.47;;
13085;SDS011;6609;49.882;8.664;2023-06-26T09:36:18;6.53;;;5.70;;
13085;SDS011;6609;49.882;8.664;2023-06-26T09:38:46;8.07;;;5.13;;
13085;SDS011;6609;49.882;8.664;2023-06-26T09:41:15;6.63;;;5.07;;
13085;SDS011;6609;49.882;8.664;2023-06-26T09:43:47;7.00;;;5.20;;
13085;SDS011;6609;49.882;8.664;2023-06-26T09:46:15;8.50;;;5.80;;
13085;SDS011;6609;49.882;8.664;2023-06-26T09:48:42;5.90;;;5.23;;
13085;SDS011;6609;49.882;8.664;2023-06-26T09:51:09;7.77;;;5.67;;
13085;SDS011;6609;49.882;8.664;2023-06-26T09:53:36;6.90;;;5.30;;
13085;SDS011;6609;49.882;8.664;2023-06-26T09:56:06;6.23;;;4.83;;
13085;SDS011;6609;49.882;8.664;2023-06-26T09:58:33;7.07;;;5.37;;
13085;SDS011;6609;49.882;8.664;2023-06-26T10:01:01;9.37;;;5.60;;
13085;SDS011;6609;49.882;8.664;2023-06-26T10:03:28;7.20;;;5.50;;
13085;SDS011;6609;49.882;8.664;2023-06-26T10:05:56;8.20;;;5.37;;
13085;SDS011;6609;49.882;8.664;2023-06-26T10:08:23;6.97;;;5.43;;
13085;SDS011;6609;49.882;8.664;2023-06-26T10:10:50;7.20;;;5.50;;
13085;SDS011;6609;49.882;8.664;2023-06-26T10:13:20;8.23;;;6.13;;
13085;SDS011;6609;49.882;8.664;2023-06-26T10:15:51;9.47;;;5.73;;
13085;SDS011;6609;49.882;8.664;2023-06-26T10:18:19;11.20;;;5.40;;
13085;SDS011;6609;49.882;8.664;2023-06-26T10:20:50;9.93;;;5.73;;
13085;SDS011;6609;49.882;8.664;2023-06-26T10:23:19;10.47;;;5.57;;
13085;SDS011;6609;49.882;8.664;2023-06-26T10:25:47;10.23;;;5.97;;
13085;SDS011;6609;49.882;8.664;2023-06-26T10:28:15;13.90;;;5.77;;
13085;SDS011;6609;49.882;8.664;2023-06-26T10:30:43;10.73;;;5.40;;
13085;SDS011;6609;49.882;8.664;2023-06-26T10:33:11;8.27;;;5.43;;
13085;SDS011;6609;49.882;8.664;2023-06-26T10:35:42;7.30;;;5.20;;
13085;SDS011;6609;49.882;8.664;2023-06-26T10:38:09;7.27;;;5.07;;
13085;SDS011;6609;49.882;8.664;2023-06-26T10:40:40;9.23;;;5.20;;
13085;SDS011;6609;49.882;8.664;2023-06-26T10:43:08;7.33;;;5.23;;
13085;SDS011;6609;49.882;8.664;2023-06-26T10:45:36;8.77;;;5.47;;
13085;SDS011;6609;49.882;8.664;2023-06-26T10:48:03;8.90;;;5.33;;
13085;SDS011;6609;49.882;8.664;2023-06-26T10:50:30;8.13;;;5.40;;
13085;SDS011;6609;49.882;8.664;2023-06-26T10:53:15;11.23;;;6.23;;
13085;SDS011;6609;49.882;8.664;2023-06-26T10:55:50;8.90;;;6.20;;
13085;SDS011;6609;49.882;8.664;2023-06-26T10:58:31;7.33;;;5.67;;
13085;SDS011;6609;49.882;8.664;2023-06-26T11:01:18;9.70;;;5.43;;
13085;SDS011;6609;49.882;8.664;2023-06-26T11:03:47;8.60;;;5.43;;
13085;SDS011;6609;49.882;8.664;2023-06-26T11:06:17;8.27;;;5.53;;
13085;SDS011;6609;49.882;8.664;2023-06-26T11:08:47;8.00;;;5.40;;
13085;SDS011;6609;49.882;8.664;2023-06-26T11:11:14;7.27;;;5.50;;
13085;SDS011;6609;49.882;8.664;2023-06-26T11:13:41;8.40;;;5.73;;
13085;SDS011;6609;49.882;8.664;2023-06-26T11:16:09;8.23;;;5.77;;
13085;SDS011;6609;49.882;8.664;2023-06-26T11:18:37;11.23;;;5.87;;
13085;SDS011;6609;49.882;8.664;2023-06-26T11:21:05;8.57;;;6.03;;
13085;SDS011;6609;49.882;8.664;2023-06-26T11:23:32;7.57;;;5.67;;
13085;SDS011;6609;49.882;8.664;2023-06-26T11:26:13;11.30;;;6.47;;
13085;SDS011;6609;49.882;8.664;2023-06-26T11:28:45;10.00;;;5.67;;
13085;SDS011;6609;49.882;8.664;2023-06-26T11:33:56;10.70;;;5.70;;
13085;SDS011;6609;49.882;8.664;2023-06-26T11:36:24;9.77;;;5.80;;
13085;SDS011;6609;49.882;8.664;2023-06-26T11:38:54;10.43;;;5.90;;
13085;SDS011;6609;49.882;8.664;2023-06-26T11:41:23;10.13;;;5.47;;
13085;SDS011;6609;49.882;8.664;2023-06-26T11:43:50;9.30;;;5.83;;
13085;SDS011;6609;49.882;8.664;2023-06-26T11:46:19;12.07;;;6.37;;
13085;SDS011;6609;49.882;8.664;2023-06-26T11:48:46;10.13;;;5.70;;
13085;SDS011;6609;49.882;8.664;2023-06-26T11:51:13;8.57;;;4.80;;
13085;SDS011;6609;49.882;8.664;2023-06-26T11:53:40;9.30;;;5.70;;
13085;SDS011;6609;49.882;8.664;2023-06-26T11:56:08;9.83;;;5.73;;
13085;SDS011;6609;49.882;8.664;2023-06-26T11:58:36;10.27;;;5.50;;
13085;SDS011;6609;49.882;8.664;2023-06-26T12:01:03;12.53;;;6.53;;
13085;SDS011;6609;49.882;8.664;2023-06-26T12:03:31;9.73;;;5.87;;
13085;SDS011;6609;49.882;8.664;2023-06-26T12:05:58;10.90;;;5.73;;
13085;SDS011;6609;49.882;8.664;2023-06-26T12:08:28;12.57;;;6.10;;
13085;SDS011;6609;49.882;8.664;2023-06-26T12:10:55;13.97;;;6.57;;
13085;SDS011;6609;49.882;8.664;2023-06-26T12:13:22;14.40;;;5.30;;
13085;SDS011;6609;49.882;8.664;2023-06-26T12:15:50;9.90;;;6.10;;
13085;SDS011;6609;49.882;8.664;2023-06-26T12:18:19;10.73;;;6.47;;
13085;SDS011;6609;49.882;8.664;2023-06-26T12:20:49;7.90;;;5.80;;
13085;SDS011;6609;49.882;8.664;2023-06-26T12:23:15;10.23;;;6.30;;
13085;SDS011;6609;49.882;8.664;2023-06-26T12:25:42;10.93;;;6.10;;
13085;SDS011;6609;49.882;8.664;2023-06-26T12:28:15;9.67;;;6.37;;
13085;SDS011;6609;49.882;8.664;2023-06-26T12:30:45;12.87;;;6.77;;
13085;SDS011;6609;49.882;8.664;2023-06-26T12:33:14;10.93;;;7.13;;
13085;SDS011;6609;49.882;8.664;2023-06-26T12:35:42;13.43;;;7.93;;
13085;SDS011;6609;49.882;8.664;2023-06-26T12:38:09;17.67;;;8.30;;
13085;SDS011;6609;49.882;8.664;2023-06-26T12:40:44;10.87;;;7.60;;
13085;SDS011;6609;49.882;8.664;2023-06-26T12:43:11;13.27;;;8.30;;
13085;SDS011;6609;49.882;8.664;2023-06-26T12:45:38;12.03;;;8.23;;
13085;SDS011;6609;49.882;8.664;2023-06-26T12:48:07;14.10;;;8.67;;
13085;SDS011;6609;49.882;8.664;2023-06-26T12:50:38;13.70;;;8.37;;
13085;SDS011;6609;49.882;8.664;2023-06-26T12:53:09;15.73;;;8.20;;
13085;SDS011;6609;49.882;8.664;2023-06-26T12:55:36;13.87;;;8.30;;
13085;SDS011;6609;49.882;8.664;2023-06-26T12:58:03;10.67;;;7.07;;
13085;SDS011;6609;49.882;8.664;2023-06-26T13:00:30;13.47;;;8.27;;
13085;SDS011;6609;49.882;8.664;2023-06-26T13:02:58;14.00;;;7.90;;
13085;SDS011;6609;49.882;8.664;2023-06-26T13:05:25;13.43;;;8.43;;
13085;SDS011;6609;49.882;8.664;2023-06-26T13:07:53;9.93;;;6.90;;
13085;SDS011;6609;49.882;8.664;2023-06-26T13:10:20;13.70;;;7.77;;
13085;SDS011;6609;49.882;8.664;2023-06-26T13:12:47;9.70;;;6.57;;
13085;SDS011;6609;49.882;8.664;2023-06-26T13:15:14;15.37;;;7.17;;
13085;SDS011;6609;49.882;8.664;2023-06-26T13:17:41;8.00;;;5.80;;
13085;SDS011;6609;49.882;8.664;2023-06-26T13:20:09;10.50;;;6.10;;
13085;SDS011;6609;49.882;8.664;2023-06-26T13:22:36;8.93;;;5.10;;
13085;SDS011;6609;49.882;8.664;2023-06-26T13:25:04;10.67;;;5.90;;
13085;SDS011;6609;49.882;8.664;2023-06-26T13:27:31;13.17;;;6.23;;
13085;SDS011;6609;49.882;8.664;2023-06-26T13:29:59;8.77;;;5.60;;
13085;SDS011;6609;49.882;8.664;2023-06-26T13:32:27;10.20;;;5.20;;
13085;SDS011;6609;49.882;8.664;2023-06-26T13:34:54;8.47;;;5.20;;
13085;SDS011;6609;49.882;8.664;2023-06-26T13:37:20;8.80;;;5.17;;
13085;SDS011;6609;49.882;8.664;2023-06-26T13:39:47;10.47;;;5.60;;
13085;SDS011;6609;49.882;8.664;2023-06-26T13:42:17;10.60;;;5.63;;
13085;SDS011;6609;49.882;8.664;2023-06-26T13:44:44;12.00;;;5.67;;
13085;SDS011;6609;49.882;8.664;2023-06-26T13:47:11;15.50;;;5.90;;
13085;SDS011;6609;49.882;8.664;2023-06-26T13:49:40;6.70;;;4.93;;
13085;SDS011;6609;49.882;8.664;2023-06-26T13:52:07;8.63;;;5.23;;
13085;SDS011;6609;49.882;8.664;2023-06-26T13:54:34;9.67;;;5.20;;
13085;SDS011;6609;49.882;8.664;2023-06-26T13:57:01;11.33;;;5.70;;
13085;SDS011;6609;49.882;8.664;2023-06-26T13:59:31;14.60;;;6.70;;
13085;SDS011;6609;49.882;8.664;2023-06-26T14:01:59;10.30;;;5.67;;
13085;SDS011;6609;49.882;8.664;2023-06-26T14:04:25;12.43;;;5.43;;
13085;SDS011;6609;49.882;8.664;2023-06-26T14:06:52;9.33;;;5.43;;
13085;SDS011;6609;49.882;8.664;2023-06-26T14:09:19;9.77;;;5.57;;
13085;SDS011;6609;49.882;8.664;2023-06-26T14:11:46;6.83;;;4.47;;
13085;SDS011;6609;49.882;8.664;2023-06-26T14:14:14;8.90;;;5.60;;
13085;SDS011;6609;49.882;8.664;2023-06-26T14:16:42;12.00;;;5.60;;
13085;SDS011;6609;49.882;8.664;2023-06-26T14:19:09;9.50;;;4.90;;
13085;SDS011;6609;49.882;8.664;2023-06-26T14:21:39;10.60;;;5.27;;
13085;SDS011;6609;49.882;8.664;2023-06-26T14:24:06;8.43;;;4.83;;
13085;SDS011;6609;49.882;8.664;2023-06-26T14:26:33;9.30;;;4.67;;
13085;SDS011;6609;49.882;8.664;2023-06-26T14:29:01;14.83;;;5.87;;
13085;SDS011;6609;49.882;8.664;2023-06-26T14:31:28;9.17;;;4.63;;
13085;SDS011;6609;49.882;8.664;2023-06-26T14:33:57;10.77;;;4.57;;
13085;SDS011;6609;49.882;8.664;2023-06-26T14:36:24;8.73;;;4.27;;
13085;SDS011;6609;49.882;8.664;2023-06-26T14:38:51;8.20;;;4.57;;
13085;SDS011;6609;49.882;8.664;2023-06-26T14:41:18;8.43;;;3.97;;
13085;SDS011;6609;49.882;8.664;2023-06-26T14:43:45;8.93;;;4.73;;
13085;SDS011;6609;49.882;8.664;2023-06-26T14:46:13;10.00;;;4.30;;
13085;SDS011;6609;49.882;8.664;2023-06-26T14:48:40;8.47;;;4.37;;
13085;SDS011;6609;49.882;8.664;2023-06-26T14:51:08;10.07;;;4.47;;
13085;SDS011;6609;49.882;8.664;2023-06-26T14:53:35;6.93;;;3.87;;
13085;SDS011;6609;49.882;8.664;2023-06-26T14:56:02;9.80;;;4.17;;
13085;SDS011;6609;49.882;8.664;2023-06-26T14:58:30;10.93;;;4.57;;
13085;SDS011;6609;49.882;8.664;2023-06-26T15:00:57;8.60;;;4.27;;
13085;SDS011;6609;49.882;8.664;2023-06-26T15:03:24;17.60;;;6.40;;